Time;durP1;ratioP1;P1;durP2;ratioP2;P2;SDS_P1;SDS_P2;PMS_P1;PMS_P2;Temp;Humidity;BMP_temperature;BMP_pressure;BME280_temperature;BME280_humidity;BME280_pressure;Samples;Min_cycle;Max_cycle;Signal;HPM_P1;HPM_P2
2024/02/15 00:01:31;;;;;;;2.22;1.10;;;;;;;-143.29;100.00;62188.47;4916399;29;20064;-96
2024/02/15 00:03:57;;;;;;;3.65;1.30;;;;;;;-143.29;100.00;62188.47;4916034;29;20042;-96
2024/02/15 00:06:23;;;;;;;1.85;1.20;;;;;;;-143.29;100.00;62188.47;4915976;29;20032;-96
2024/02/15 00:08:50;;;;;;;7.88;1.52;;;;;;;-143.29;100.00;62188.47;4916220;29;20024;-96
2024/02/15 00:11:15;;;;;;;3.53;1.55;;;;;;;-143.29;100.00;62188.47;4916598;29;20028;-96
2024/02/15 00:13:41;;;;;;;3.47;1.67;;;;;;;-143.29;100.00;62188.47;4915949;29;20073;-96
2024/02/15 00:16:06;;;;;;;7.72;1.90;;;;;;;-143.29;100.00;62188.47;4916027;29;20378;-96
2024/02/15 00:18:32;;;;;;;5.03;2.28;;;;;;;-143.29;100.00;62188.47;4918100;29;20020;-96
2024/02/15 00:20:58;;;;;;;5.60;2.67;;;;;;;-143.29;100.00;62188.47;4922473;29;20111;-96
2024/02/15 00:23:24;;;;;;;5.90;2.50;;;;;;;-143.29;100.00;62188.47;4926110;29;20055;-96
2024/02/15 00:25:50;;;;;;;4.80;2.30;;;;;;;-143.29;100.00;62188.47;4924924;29;20029;-96
2024/02/15 00:28:15;;;;;;;6.35;2.95;;;;;;;-143.29;100.00;62188.47;4923811;29;20031;-96
2024/02/15 00:30:41;;;;;;;7.00;3.42;;;;;;;-143.29;100.00;62188.47;4924703;29;20028;-96
2024/02/15 00:33:07;;;;;;;6.90;3.10;;;;;;;-143.29;100.00;62188.47;4924477;29;20124;-96
2024/02/15 00:35:33;;;;;;;5.35;3.05;;;;;;;-143.29;100.00;62188.47;4925582;29;20044;-96
2024/02/15 00:37:59;;;;;;;9.90;3.67;;;;;;;-143.29;100.00;62188.47;4925860;29;20068;-96
2024/02/15 00:40:24;;;;;;;6.25;3.10;;;;;;;-143.29;100.00;62188.47;4924490;29;20024;-96
2024/02/15 00:42:50;;;;;;;6.05;3.10;;;;;;;-143.29;100.00;62188.47;4923325;29;20060;-96
2024/02/15 00:45:15;;;;;;;4.85;2.78;;;;;;;-143.29;100.00;62188.47;4924700;29;20048;-96
2024/02/15 00:47:41;;;;;;;5.35;2.67;;;;;;;-143.29;100.00;62188.47;4924151;29;20020;-96
2024/02/15 00:50:08;;;;;;;3.97;2.38;;;;;;;-143.29;100.00;62188.47;4922913;29;20020;-96
2024/02/15 00:52:34;;;;;;;5.07;2.60;;;;;;;-143.29;100.00;62188.47;4925044;29;20512;-96
2024/02/15 00:54:59;;;;;;;7.45;2.50;;;;;;;-143.29;100.00;62188.47;4923994;29;20119;-96
2024/02/15 00:57:25;;;;;;;4.30;2.17;;;;;;;-143.29;100.00;62188.47;4924391;29;20028;-96
2024/02/15 00:59:51;;;;;;;3.78;2.17;;;;;;;-143.29;100.00;62188.47;4923147;29;20502;-96
2024/02/15 01:02:17;;;;;;;3.85;2.38;;;;;;;-143.29;100.00;62188.47;4922929;29;20028;-96
2024/02/15 01:04:45;;;;;;;2.58;1.20;;;;;;;-143.29;100.00;62188.47;4924368;29;20035;-96
2024/02/15 01:07:10;;;;;;;3.22;1.95;;;;;;;-143.29;100.00;62188.47;4925499;29;20092;-96
2024/02/15 01:09:36;;;;;;;2.38;1.33;;;;;;;-143.29;100.00;62188.47;4925559;29;20024;-96
2024/02/15 01:12:03;;;;;;;1.45;1.10;;;;;;;-143.29;100.00;62188.47;4926800;29;20063;-96
2024/02/15 01:14:30;;;;;;;3.78;1.30;;;;;;;-143.29;100.00;62188.47;4928756;29;20043;-96
2024/02/15 01:16:56;;;;;;;3.45;1.70;;;;;;;-143.29;100.00;62188.47;4927695;29;20032;-96
2024/02/15 01:19:22;;;;;;;2.38;1.50;;;;;;;-143.29;100.00;62188.47;4929841;29;20024;-96
2024/02/15 01:21:48;;;;;;;1.80;1.25;;;;;;;-143.29;100.00;62188.47;4931307;29;20043;-96
2024/02/15 01:24:14;;;;;;;1.85;1.50;;;;;;;-143.29;100.00;62188.47;4931069;29;20028;-96
2024/02/15 01:26:40;;;;;;;3.13;1.30;;;;;;;-143.29;100.00;62188.47;4931705;29;20035;-96
2024/02/15 01:29:05;;;;;;;2.28;1.50;;;;;;;-143.29;100.00;62188.47;4932334;29;20474;-96
2024/02/15 01:31:31;;;;;;;3.78;1.30;;;;;;;-143.29;100.00;62188.47;4932968;29;20028;-96
2024/02/15 01:33:57;;;;;;;2.00;1.23;;;;;;;-143.29;100.00;62188.47;4933097;29;20025;-96
2024/02/15 01:36:23;;;;;;;2.53;1.20;;;;;;;-143.29;100.00;62188.47;4917921;29;20028;-96
2024/02/15 01:38:49;;;;;;;3.47;1.15;;;;;;;-143.29;100.00;62188.47;4932312;29;20032;-96
2024/02/15 01:41:16;;;;;;;2.15;1.33;;;;;;;-143.29;100.00;62188.47;4931702;29;20024;-96
2024/02/15 01:43:45;;;;;;;1.63;1.20;;;;;;;-143.29;100.00;62188.47;4931401;29;20028;-96
2024/02/15 01:46:12;;;;;;;2.50;1.58;;;;;;;-143.29;100.00;62188.47;4932650;29;20044;-96
2024/02/15 01:48:40;;;;;;;5.10;1.63;;;;;;;-143.29;100.00;62188.47;4932210;29;20030;-96
2024/02/15 01:51:08;;;;;;;2.83;2.42;;;;;;;-143.29;100.00;62188.47;4932181;29;20024;-96
2024/02/15 01:53:34;;;;;;;3.90;2.80;;;;;;;-143.29;100.00;62188.47;4933194;29;20076;-96
2024/02/15 01:56:02;;;;;;;3.20;2.90;;;;;;;-143.29;100.00;62188.47;4933317;29;20040;-96
2024/02/15 01:58:31;;;;;;;5.85;3.35;;;;;;;-143.29;100.00;62188.47;4931852;29;20024;-96
2024/02/15 02:00:58;;;;;;;4.78;2.83;;;;;;;-143.29;100.00;62188.47;4931163;29;20127;-96
2024/02/15 02:03:24;;;;;;;3.20;2.90;;;;;;;-143.29;100.00;62188.47;4931666;29;20060;-96
2024/02/15 02:05:50;;;;;;;4.43;2.97;;;;;;;-143.29;100.00;62188.47;4932118;29;20025;-96
2024/02/15 02:08:16;;;;;;;2.92;2.33;;;;;;;-143.29;100.00;62188.47;4932329;29;20056;-96
2024/02/15 02:10:42;;;;;;;3.83;2.70;;;;;;;-143.29;100.00;62188.47;4932245;29;20032;-96
2024/02/15 02:13:09;;;;;;;2.67;2.22;;;;;;;-143.29;100.00;62188.47;4932292;29;20056;-96
2024/02/15 02:15:37;;;;;;;2.90;2.33;;;;;;;-143.29;100.00;62188.47;4931256;29;20034;-96
2024/02/15 02:18:08;;;;;;;2.50;2.30;;;;;;;-143.29;100.00;62188.47;4932564;29;20056;-96
2024/02/15 02:20:36;;;;;;;2.13;1.90;;;;;;;-143.29;100.00;62188.47;4932101;29;20032;-96
2024/02/15 02:23:14;;;;;;;2.72;2.10;;;;;;;-143.29;100.00;62188.47;4930500;29;20028;-96
2024/02/15 02:25:42;;;;;;;2.30;2.00;;;;;;;-143.29;100.00;62188.47;4930224;29;20024;-96
2024/02/15 02:28:08;;;;;;;2.20;2.00;;;;;;;-143.29;100.00;62188.47;4932292;29;20028;-96
2024/02/15 02:30:34;;;;;;;2.50;2.30;;;;;;;-143.29;100.00;62188.47;4931400;29;20471;-96
2024/02/15 02:33:01;;;;;;;2.22;1.83;;;;;;;-143.29;100.00;62188.47;4931488;29;20032;-96
2024/02/15 02:35:29;;;;;;;2.20;2.00;;;;;;;-143.29;100.00;62188.47;4930306;29;20088;-96
2024/02/15 02:37:56;;;;;;;2.03;1.80;;;;;;;-143.29;100.00;62188.47;4929946;29;20111;-96
2024/02/15 02:40:22;;;;;;;2.45;2.22;;;;;;;-143.29;100.00;62188.47;4928618;29;20075;-96
2024/02/15 02:42:52;;;;;;;2.13;1.92;;;;;;;-143.29;100.00;62188.47;4928334;29;20024;-96
2024/02/15 02:45:19;;;;;;;5.35;3.17;;;;;;;-143.29;100.00;62188.47;4930532;29;20028;-96
2024/02/15 02:47:46;;;;;;;5.28;2.47;;;;;;;-143.29;100.00;62188.47;4927370;29;20016;-96
2024/02/15 02:50:13;;;;;;;4.43;4.03;;;;;;;-143.29;100.00;62188.47;4927976;29;20021;-96
2024/02/15 02:52:39;;;;;;;3.85;3.28;;;;;;;-143.29;100.00;62188.47;4928312;29;20092;-96
2024/02/15 02:55:08;;;;;;;5.05;4.30;;;;;;;-143.29;100.00;62188.47;4927637;29;20123;-96
2024/02/15 02:57:37;;;;;;;4.40;4.00;;;;;;;-143.29;100.00;62188.47;4927479;29;20028;-96
2024/02/15 03:00:07;;;;;;;6.25;5.57;;;;;;;-143.29;100.00;62188.47;4928480;29;20048;-96
2024/02/15 03:02:35;;;;;;;5.88;4.43;;;;;;;-143.29;100.00;62188.47;4927916;29;20051;-96
2024/02/15 03:05:03;;;;;;;3.25;2.95;;;;;;;-143.29;100.00;62188.47;4927748;29;20131;-96
2024/02/15 03:07:32;;;;;;;7.00;5.38;;;;;;;-143.29;100.00;62188.47;4927907;29;20028;-96
2024/02/15 03:09:58;;;;;;;6.18;5.57;;;;;;;-143.29;100.00;62188.47;4926872;29;20032;-96
2024/02/15 03:12:24;;;;;;;5.53;4.95;;;;;;;-143.29;100.00;62188.47;4928350;29;20024;-96
2024/02/15 03:14:50;;;;;;;4.28;3.88;;;;;;;-143.29;100.00;62188.47;4927524;29;20071;-96
2024/02/15 03:17:15;;;;;;;3.78;3.30;;;;;;;-143.29;100.00;62188.47;4928113;29;20032;-96
2024/02/15 03:19:41;;;;;;;5.20;4.70;;;;;;;-143.29;100.00;62188.47;4927998;29;20028;-96
2024/02/15 03:22:07;;;;;;;5.13;4.47;;;;;;;-143.29;100.00;62188.47;4929448;29;20020;-96
2024/02/15 03:24:32;;;;;;;9.73;4.70;;;;;;;-143.29;100.00;62188.47;4927539;29;20110;-96
2024/02/15 03:26:58;;;;;;;7.03;4.72;;;;;;;-143.29;100.00;62188.47;4927065;29;20130;-96
2024/02/15 03:29:25;;;;;;;6.03;4.15;;;;;;;-143.29;100.00;62188.47;4926609;29;20070;-96
2024/02/15 03:31:53;;;;;;;4.53;3.60;;;;;;;-143.29;100.00;62188.47;4926680;29;20030;-96
2024/02/15 03:34:21;;;;;;;4.05;3.42;;;;;;;-143.29;100.00;62188.47;4925651;29;20054;-96
2024/02/15 03:36:51;;;;;;;6.28;4.28;;;;;;;-143.29;100.00;62188.47;4924930;29;20020;-96
2024/02/15 03:39:17;;;;;;;5.95;4.35;;;;;;;-143.29;100.00;62188.47;4924458;29;20020;-96
2024/02/15 03:41:45;;;;;;;7.40;4.32;;;;;;;-143.29;100.00;62188.47;4924342;29;20027;-96
2024/02/15 03:44:12;;;;;;;6.75;4.72;;;;;;;-143.29;100.00;62188.47;4923603;29;20040;-96
2024/02/15 03:46:37;;;;;;;6.18;4.18;;;;;;;-143.29;100.00;62188.47;4924843;29;20028;-95
2024/02/15 03:49:03;;;;;;;5.57;4.80;;;;;;;-143.29;100.00;62188.47;4924382;29;20039;-96
2024/02/15 03:51:29;;;;;;;8.45;4.90;;;;;;;-143.29;100.00;62188.47;4924780;29;20119;-96
2024/02/15 03:53:54;;;;;;;7.28;4.60;;;;;;;-143.29;100.00;62188.47;4924393;29;20064;-96
2024/02/15 03:56:23;;;;;;;6.53;4.57;;;;;;;-143.29;100.00;62188.47;4922718;29;20040;-95
2024/02/15 03:58:50;;;;;;;7.85;4.70;;;;;;;-143.29;100.00;62188.47;4922362;29;20398;-96
2024/02/15 04:01:16;;;;;;;7.53;4.60;;;;;;;-143.29;100.00;62188.47;4922098;29;20111;-96
2024/02/15 04:03:41;;;;;;;11.85;4.88;;;;;;;-143.29;100.00;62188.47;4922294;29;20056;-96
2024/02/15 04:06:07;;;;;;;7.38;4.10;;;;;;;-143.29;100.00;62188.47;4922512;29;20107;-96
2024/02/15 04:08:33;;;;;;;12.63;5.30;;;;;;;-143.29;100.00;62188.47;4922644;29;20086;-96
2024/02/15 04:10:59;;;;;;;12.30;4.40;;;;;;;-143.29;100.00;62188.47;4927310;29;20028;-96
2024/02/15 04:13:25;;;;;;;7.38;4.30;;;;;;;-143.29;100.00;62188.47;4922828;29;20028;-96
2024/02/15 04:15:52;;;;;;;6.32;4.30;;;;;;;-143.29;100.00;62188.47;4922606;29;20025;-96
2024/02/15 04:18:19;;;;;;;8.70;4.60;;;;;;;-143.29;100.00;62188.47;4923700;29;20517;-96
2024/02/15 04:20:46;;;;;;;7.35;3.97;;;;;;;-143.29;100.00;62188.47;4922943;29;20028;-96
2024/02/15 04:23:12;;;;;;;7.20;3.55;;;;;;;-143.29;100.00;62188.47;4923598;29;20024;-96
2024/02/15 04:25:38;;;;;;;7.32;4.53;;;;;;;-143.29;100.00;62188.47;4923288;29;20028;-96
2024/02/15 04:28:05;;;;;;;7.18;4.82;;;;;;;-143.29;100.00;62188.47;4924201;29;20394;-96
2024/02/15 04:30:31;;;;;;;6.30;3.67;;;;;;;-143.29;100.00;62188.47;4924534;29;20608;-96
2024/02/15 04:32:57;;;;;;;5.88;3.85;;;;;;;-143.29;100.00;62188.47;4924968;29;20487;-96
2024/02/15 04:35:22;;;;;;;9.77;3.95;;;;;;;-143.29;100.00;62188.47;4924260;29;20020;-96
2024/02/15 04:37:49;;;;;;;10.80;3.60;;;;;;;-143.29;100.00;62188.47;4923722;29;20032;-96
2024/02/15 04:40:14;;;;;;;6.03;2.90;;;;;;;-143.29;100.00;62188.47;4923177;29;20028;-96
2024/02/15 04:42:41;;;;;;;7.32;3.13;;;;;;;-143.29;100.00;62188.47;4922508;29;20020;-95
2024/02/15 04:45:13;;;;;;;6.93;3.00;;;;;;;-143.29;100.00;62188.47;4922986;29;20032;-96
2024/02/15 04:47:40;;;;;;;7.25;3.53;;;;;;;-143.29;100.00;62188.47;4922340;29;20273;-96
2024/02/15 04:50:06;;;;;;;18.88;3.72;;;;;;;-143.29;100.00;62188.47;4922024;29;20029;-95
2024/02/15 04:52:32;;;;;;;8.48;3.72;;;;;;;-143.29;100.00;62188.47;4921547;29;20020;-96
2024/02/15 04:55:00;;;;;;;7.47;4.28;;;;;;;-143.29;100.00;62188.47;4922640;29;20581;-96
2024/02/15 04:57:27;;;;;;;14.88;5.47;;;;;;;-143.29;100.00;62188.47;4923267;29;20027;-96
2024/02/15 04:59:53;;;;;;;11.07;4.65;;;;;;;-143.29;100.00;62188.47;4922094;29;20035;-96
2024/02/15 05:02:19;;;;;;;11.75;4.20;;;;;;;-143.29;100.00;62188.47;4921971;29;20115;-96
2024/02/15 05:04:45;;;;;;;11.77;4.90;;;;;;;-143.29;100.00;62188.47;4920606;29;20040;-96
2024/02/15 05:07:11;;;;;;;9.38;4.00;;;;;;;-143.29;100.00;62188.47;4920560;29;20031;-96
2024/02/15 05:09:36;;;;;;;13.30;5.22;;;;;;;-143.29;100.00;62188.47;4920318;29;20027;-96
2024/02/15 05:12:02;;;;;;;15.73;6.32;;;;;;;-143.29;100.00;62188.47;4920232;29;20533;-96
2024/02/15 05:14:30;;;;;;;17.98;5.65;;;;;;;-143.29;100.00;62188.47;4920114;29;20063;-96
2024/02/15 05:16:56;;;;;;;13.23;5.60;;;;;;;-143.29;100.00;62188.47;4920052;29;20470;-96
2024/02/15 05:19:21;;;;;;;12.93;5.55;;;;;;;-143.29;100.00;62188.47;4920903;29;20035;-96
2024/02/15 05:21:47;;;;;;;14.50;6.50;;;;;;;-143.29;100.00;62188.47;4920804;29;20016;-96
2024/02/15 05:24:13;;;;;;;18.40;7.32;;;;;;;-143.29;100.00;62188.47;4919642;29;20028;-96
2024/02/15 05:26:48;;;;;;;25.05;7.85;;;;;;;-143.29;100.00;62188.47;4919903;29;20036;-96
2024/02/15 05:29:15;;;;;;;21.65;8.65;;;;;;;-143.29;100.00;62188.47;4919872;29;20596;-96
2024/02/15 05:31:40;;;;;;;25.08;7.00;;;;;;;-143.29;100.00;62188.47;4919936;29;20118;-96
2024/02/15 05:34:11;;;;;;;14.18;6.72;;;;;;;-143.29;100.00;62188.47;4920201;29;20024;-96
2024/02/15 05:36:37;;;;;;;20.80;8.17;;;;;;;-143.29;100.00;62188.47;4918596;29;20062;-96
2024/02/15 05:39:04;;;;;;;18.27;9.15;;;;;;;-143.29;100.00;62188.47;4919472;29;20060;-96
2024/02/15 05:41:29;;;;;;;22.00;9.93;;;;;;;-143.29;100.00;62188.47;4919297;29;20052;-96
2024/02/15 05:43:57;;;;;;;32.88;10.10;;;;;;;-143.29;100.00;62188.47;4919631;29;20028;-96
2024/02/15 05:46:22;;;;;;;28.73;10.65;;;;;;;-143.29;100.00;62188.47;4919638;29;20466;-96
2024/02/15 05:48:48;;;;;;;31.52;10.20;;;;;;;-143.29;100.00;62188.47;4919482;29;20042;-96
2024/02/15 05:51:14;;;;;;;20.55;8.85;;;;;;;-143.29;100.00;62188.47;4919541;29;20071;-96
2024/02/15 05:53:41;;;;;;;36.97;11.00;;;;;;;-143.29;100.00;62188.47;4919284;29;20546;-96
2024/02/15 05:56:08;;;;;;;29.80;11.57;;;;;;;-143.29;100.00;62188.47;4919650;29;20035;-96
2024/02/15 05:58:34;;;;;;;23.35;8.65;;;;;;;-143.29;100.00;62188.47;4918482;29;20475;-96
2024/02/15 06:01:01;;;;;;;24.35;10.50;;;;;;;-143.29;100.00;62188.47;4918886;29;20383;-96
2024/02/15 06:03:33;;;;;;;31.60;10.85;;;;;;;-143.29;100.00;62188.47;4918789;29;20028;-95
2024/02/15 06:06:06;;;;;;;30.98;10.82;;;;;;;-143.29;100.00;62188.47;4918695;29;20056;-96
2024/02/15 06:08:33;;;;;;;31.13;11.90;;;;;;;-143.29;100.00;62188.47;4918568;29;20059;-96
2024/02/15 06:10:58;;;;;;;30.75;11.98;;;;;;;-143.29;100.00;62188.47;4918703;29;20080;-96
2024/02/15 06:13:25;;;;;;;37.03;14.60;;;;;;;-143.29;100.00;62188.47;4918824;29;20032;-96
2024/02/15 06:15:54;;;;;;;33.78;11.98;;;;;;;-143.29;100.00;62188.47;4918450;29;20032;-96
2024/02/15 06:18:24;;;;;;;30.40;13.15;;;;;;;-143.29;100.00;62188.47;4918272;29;20482;-96
2024/02/15 06:20:50;;;;;;;43.15;12.90;;;;;;;-143.29;100.00;62188.47;4917926;29;20028;-96
2024/02/15 06:23:17;;;;;;;38.42;13.85;;;;;;;-143.29;100.00;62188.47;4917952;29;20028;-96
2024/02/15 06:25:43;;;;;;;47.20;14.15;;;;;;;-143.29;100.00;62188.47;4918353;29;20028;-96
2024/02/15 06:41:54;;;;;;;46.33;12.07;;;;;;;-143.29;100.00;62188.47;4919350;29;20031;-96
2024/02/15 06:44:19;;;;;;;45.15;10.05;;;;;;;-143.29;100.00;62188.47;4917110;29;20032;-96
2024/02/15 06:46:46;;;;;;;37.38;10.50;;;;;;;-143.29;100.00;62188.47;4917534;29;20079;-96
2024/02/15 06:49:11;;;;;;;35.75;10.85;;;;;;;-143.29;100.00;62188.47;4918220;29;20123;-95
2024/02/15 06:51:37;;;;;;;29.95;8.15;;;;;;;-143.29;100.00;62188.47;4918797;29;20114;-96
2024/02/15 06:54:02;;;;;;;28.55;9.07;;;;;;;-143.29;100.00;62188.47;4918872;29;20489;-96
2024/02/15 06:56:28;;;;;;;23.05;7.47;;;;;;;-143.29;100.00;62188.47;4918649;29;20033;-96
2024/02/15 06:58:54;;;;;;;24.55;8.00;;;;;;;-143.29;100.00;62188.47;4918690;29;20537;-96
2024/02/15 07:01:20;;;;;;;26.35;6.57;;;;;;;-143.29;100.00;62188.47;4918685;29;20495;-96
2024/02/15 07:03:45;;;;;;;15.13;5.15;;;;;;;-143.29;100.00;62188.47;4918324;29;20058;-96
2024/02/15 07:06:13;;;;;;;20.25;5.32;;;;;;;-143.29;100.00;62188.47;4918581;29;20025;-96
2024/02/15 07:08:39;;;;;;;27.90;6.18;;;;;;;-143.29;100.00;62188.47;4918312;29;20032;-96
2024/02/15 07:11:09;;;;;;;31.25;6.82;;;;;;;-143.29;100.00;62188.47;4918890;29;20028;-96
2024/02/15 07:13:35;;;;;;;25.27;6.13;;;;;;;-143.29;100.00;62188.47;4918341;29;20050;-95
2024/02/15 07:16:01;;;;;;;20.15;7.30;;;;;;;-143.29;100.00;62188.47;4918202;29;20032;-96
2024/02/15 07:18:27;;;;;;;29.75;7.28;;;;;;;-143.29;100.00;62188.47;4918204;29;20088;-96
2024/02/15 07:20:53;;;;;;;27.92;6.53;;;;;;;-143.29;100.00;62188.47;4917464;29;20471;-96
2024/02/15 07:23:18;;;;;;;24.83;6.35;;;;;;;-143.29;100.00;62188.47;4916999;29;20042;-96
2024/02/15 07:25:43;;;;;;;21.85;6.28;;;;;;;-143.29;100.00;62188.47;4917636;29;20077;-96
2024/02/15 07:28:09;;;;;;;28.42;6.70;;;;;;;-143.29;100.00;62188.47;4917946;29;20505;-96
2024/02/15 07:30:36;;;;;;;24.42;5.85;;;;;;;-143.29;100.00;62188.47;4918010;29;20079;-96
2024/02/15 07:33:02;;;;;;;28.65;5.75;;;;;;;-143.29;100.00;62188.47;4917565;29;20032;-96
2024/02/15 07:35:28;;;;;;;20.85;5.80;;;;;;;-143.29;100.00;62188.47;4917817;29;20107;-96
2024/02/15 07:38:00;;;;;;;22.90;5.07;;;;;;;-143.29;100.00;62188.47;4916824;29;20030;-96
2024/02/15 07:40:28;;;;;;;25.83;8.07;;;;;;;-143.29;100.00;62188.47;4917190;29;20406;-96
2024/02/15 07:42:56;;;;;;;16.80;5.25;;;;;;;-143.29;100.00;62188.47;4917102;29;20032;-96
2024/02/15 07:45:22;;;;;;;22.60;6.13;;;;;;;-143.29;100.00;62188.47;4917044;29;20431;-96
2024/02/15 07:47:48;;;;;;;45.28;6.30;;;;;;;-143.29;100.00;62188.47;4917172;29;20028;-96
2024/02/15 07:50:22;;;;;;;17.75;5.32;;;;;;;-143.29;100.00;62188.47;4917212;29;20047;-96
2024/02/15 07:52:48;;;;;;;22.58;5.40;;;;;;;-143.29;100.00;62188.47;4917617;29;20167;-96
2024/02/15 07:55:13;;;;;;;14.98;5.78;;;;;;;-143.29;100.00;62188.47;4917566;29;20067;-96
2024/02/15 07:57:39;;;;;;;16.50;5.88;;;;;;;-143.29;100.00;62188.47;4917161;29;20035;-96
2024/02/15 08:00:10;;;;;;;22.05;6.25;;;;;;;-143.29;100.00;62188.47;4918135;29;20032;-96
2024/02/15 08:02:42;;;;;;;17.38;4.75;;;;;;;-143.29;100.00;62188.47;4920296;29;20031;-96
2024/02/15 08:05:10;;;;;;;19.83;5.15;;;;;;;-143.29;100.00;62188.47;4920137;29;20486;-96
2024/02/15 08:07:47;;;;;;;17.88;5.03;;;;;;;-143.29;100.00;62188.47;4919075;29;20111;-96
2024/02/15 08:10:12;;;;;;;12.27;4.10;;;;;;;-143.29;100.00;62188.47;4917983;29;20394;-96
2024/02/15 08:12:45;;;;;;;17.45;3.95;;;;;;;-143.29;100.00;62188.47;4918427;29;20024;-96
2024/02/15 08:15:14;;;;;;;12.68;3.88;;;;;;;-143.29;100.00;62188.47;4917283;29;20032;-96
2024/02/15 08:17:41;;;;;;;12.20;3.65;;;;;;;-143.29;100.00;62188.47;4917356;29;20028;-96
2024/02/15 08:20:11;;;;;;;12.48;3.17;;;;;;;-143.29;100.00;62188.47;4917930;29;20036;-96
2024/02/15 08:22:39;;;;;;;11.50;3.92;;;;;;;-143.29;100.00;62188.47;4917484;29;20116;-96
2024/02/15 08:25:11;;;;;;;17.38;3.72;;;;;;;-143.29;100.00;62188.47;4917594;29;20040;-96
2024/02/15 08:27:42;;;;;;;15.57;4.13;;;;;;;-143.29;100.00;62188.47;4917042;29;20176;-96
2024/02/15 08:30:10;;;;;;;14.68;3.22;;;;;;;-143.29;100.00;62188.47;4917032;29;20123;-96
2024/02/15 08:32:39;;;;;;;16.83;3.70;;;;;;;-143.29;100.00;62188.47;4917442;29;20024;-96
2024/02/15 08:35:06;;;;;;;14.05;3.88;;;;;;;-143.29;100.00;62188.47;4918833;29;20111;-96
2024/02/15 08:37:34;;;;;;;12.15;3.15;;;;;;;-143.29;100.00;62188.47;4919356;29;20026;-96
2024/02/15 08:40:00;;;;;;;18.42;3.65;;;;;;;-143.29;100.00;62188.47;4918967;29;20020;-96
2024/02/15 08:42:26;;;;;;;16.60;3.75;;;;;;;-143.29;100.00;62188.47;4918795;29;20076;-96
2024/02/15 08:44:52;;;;;;;17.95;3.25;;;;;;;-143.29;100.00;62188.47;4918590;29;20043;-96
2024/02/15 08:47:17;;;;;;;17.95;3.67;;;;;;;-143.29;100.00;62188.47;4919057;29;20031;-96
2024/02/15 08:49:43;;;;;;;17.38;3.75;;;;;;;-143.29;100.00;62188.47;4919900;29;20125;-96
2024/02/15 08:52:08;;;;;;;11.75;2.78;;;;;;;-143.29;100.00;62188.47;4920110;29;20027;-96
2024/02/15 08:54:34;;;;;;;13.98;3.17;;;;;;;-143.29;100.00;62188.47;4920313;29;20044;-96
2024/02/15 08:57:01;;;;;;;15.25;3.28;;;;;;;-143.29;100.00;62188.47;4921279;29;20032;-96
2024/02/15 08:59:28;;;;;;;11.23;3.42;;;;;;;-143.29;100.00;62188.47;4921071;29;20016;-95
2024/02/15 09:01:55;;;;;;;18.60;3.03;;;;;;;-143.29;100.00;62188.47;4922740;29;20024;-96
2024/02/15 09:04:23;;;;;;;11.48;2.83;;;;;;;-143.29;100.00;62188.47;4922336;29;20035;-96
2024/02/15 09:06:48;;;;;;;9.40;2.40;;;;;;;-143.29;100.00;62188.47;4923026;29;20035;-96
2024/02/15 09:09:14;;;;;;;9.55;2.70;;;;;;;-143.29;100.00;62188.47;4922953;29;20029;-96
2024/02/15 09:11:39;;;;;;;10.55;2.30;;;;;;;-143.29;100.00;62188.47;4925582;29;20028;-96
2024/02/15 09:14:04;;;;;;;17.00;2.85;;;;;;;-143.29;100.00;62188.47;4925707;29;20024;-96
2024/02/15 09:16:31;;;;;;;10.38;3.13;;;;;;;-143.29;100.00;62188.47;4927277;29;20032;-96
2024/02/15 09:19:00;;;;;;;11.55;3.13;;;;;;;-143.29;100.00;62188.47;4929038;29;20040;-96
2024/02/15 09:21:28;;;;;;;10.98;3.50;;;;;;;-143.29;100.00;62188.47;4930543;29;20031;-96
2024/02/15 09:23:53;;;;;;;13.07;2.90;;;;;;;-143.29;100.00;62188.47;4929077;29;20063;-96
2024/02/15 09:26:19;;;;;;;11.88;2.85;;;;;;;-143.29;100.00;62188.47;4932344;29;20067;-96
2024/02/15 09:28:44;;;;;;;11.77;3.33;;;;;;;-143.29;100.00;62188.47;4931466;29;20513;-96
2024/02/15 09:31:13;;;;;;;15.50;3.05;;;;;;;-143.29;100.00;62188.47;4931545;29;20036;-96
2024/02/15 09:33:39;;;;;;;16.55;3.10;;;;;;;-143.29;100.00;62188.47;4932147;29;20040;-96
2024/02/15 09:36:04;;;;;;;13.90;2.90;;;;;;;-143.29;100.00;62188.47;4933556;29;20044;-96
2024/02/15 09:38:31;;;;;;;10.20;2.80;;;;;;;-143.29;100.00;62188.47;4934041;29;20032;-96
2024/02/15 09:41:00;;;;;;;8.30;2.75;;;;;;;-143.29;100.00;62188.47;4935711;29;20115;-96
2024/02/15 09:43:26;;;;;;;13.50;2.72;;;;;;;-143.29;100.00;62188.47;4934876;29;20025;-96
2024/02/15 09:45:55;;;;;;;9.55;2.65;;;;;;;-143.29;100.00;62188.47;4935620;29;20152;-96
2024/02/15 09:48:24;;;;;;;12.05;3.65;;;;;;;-143.29;100.00;62188.47;4935455;29;20035;-96
2024/02/15 09:50:53;;;;;;;11.75;2.92;;;;;;;-143.29;100.00;62188.47;4937616;29;20125;-96
2024/02/15 09:53:28;;;;;;;9.98;2.47;;;;;;;-143.29;100.00;62188.47;4936583;29;20080;-96
2024/02/15 09:55:54;;;;;;;13.30;2.85;;;;;;;-143.29;100.00;62188.47;4937430;29;20028;-96
2024/02/15 09:58:23;;;;;;;10.40;2.55;;;;;;;-143.29;100.00;62188.47;4938327;29;20080;-96
2024/02/15 10:00:50;;;;;;;10.02;2.53;;;;;;;-143.29;100.00;62188.47;4940158;29;20036;-96
2024/02/15 10:03:23;;;;;;;11.60;2.70;;;;;;;-143.29;100.00;62188.47;4939723;29;20028;-96
2024/02/15 10:05:57;;;;;;;6.47;2.78;;;;;;;-143.29;100.00;62188.47;4939688;29;20024;-96
2024/02/15 10:08:24;;;;;;;33.88;6.80;;;;;;;-143.29;100.00;62188.47;4940290;29;20054;-96
2024/02/15 10:11:20;;;;;;;22.17;3.55;;;;;;;-143.29;100.00;62188.47;4939849;29;20055;-96
2024/02/15 10:13:54;;;;;;;13.43;2.53;;;;;;;-143.29;100.00;62188.47;4939755;29;20040;-96
2024/02/15 10:16:25;;;;;;;18.70;3.28;;;;;;;-143.29;100.00;62188.47;4940431;29;20035;-96
2024/02/15 10:18:52;;;;;;;13.13;2.72;;;;;;;-143.29;100.00;62188.47;4940243;29;20040;-96
2024/02/15 10:21:40;;;;;;;5.22;2.00;;;;;;;-143.29;100.00;62188.47;4940137;29;20099;-96
2024/02/15 10:24:09;;;;;;;10.35;2.17;;;;;;;-143.29;100.00;62188.47;4924865;29;20066;-96
2024/02/15 10:26:42;;;;;;;12.48;2.70;;;;;;;-143.29;100.00;62188.47;4956498;29;20066;-96
2024/02/15 10:29:19;;;;;;;18.60;2.60;;;;;;;-143.29;100.00;62188.47;4941052;29;20056;-96
2024/02/15 10:32:04;;;;;;;9.15;2.58;;;;;;;-143.29;100.00;62188.47;4940471;29;20008;-96
2024/02/15 10:34:36;;;;;;;11.13;2.65;;;;;;;-143.29;100.00;62188.47;4942500;29;20047;-96
2024/02/15 10:37:21;;;;;;;5.55;2.03;;;;;;;-143.29;100.00;62188.47;4939228;29;20068;-96
2024/02/15 10:40:17;;;;;;;9.38;2.20;;;;;;;-143.29;100.00;62188.47;4941617;29;20031;-96
2024/02/15 10:43:19;;;;;;;6.78;2.13;;;;;;;-143.29;100.00;62188.47;4941075;29;20016;-96
2024/02/15 10:45:49;;;;;;;10.52;2.58;;;;;;;-143.29;100.00;62188.47;4941902;29;20032;-96
2024/02/15 10:48:33;;;;;;;6.45;1.95;;;;;;;-143.29;100.00;62188.47;4956947;29;20056;-96
2024/02/15 13:21:10;;;;;;;8.55;2.10;;;;;;;-143.29;100.00;62188.47;4904140;29;20029;-96
2024/02/15 13:23:35;;;;;;;11.80;2.83;;;;;;;-143.29;100.00;62188.47;4905656;29;20013;-96
2024/02/15 13:26:04;;;;;;;5.68;2.42;;;;;;;-143.29;100.00;62188.47;4904931;29;20049;-96
2024/02/15 13:28:30;;;;;;;16.38;2.63;;;;;;;-143.29;100.00;62188.47;4920126;29;20033;-96
2024/02/15 13:31:27;;;;;;;8.25;2.92;;;;;;;-143.29;100.00;62188.47;4905490;29;20029;-96
2024/02/15 13:34:16;;;;;;;14.48;2.80;;;;;;;-143.29;100.00;62188.47;4903923;29;20025;-96
2024/02/15 13:36:44;;;;;;;12.60;3.50;;;;;;;-143.29;100.00;62188.47;4904940;29;20088;-96
2024/02/15 13:39:14;;;;;;;12.25;3.38;;;;;;;-143.29;100.00;62188.47;4904487;29;20041;-96
2024/02/15 13:41:44;;;;;;;7.45;2.47;;;;;;;-143.29;100.00;62188.47;4904453;29;20025;-96
2024/02/15 13:44:34;;;;;;;6.30;2.00;;;;;;;-143.29;100.00;62188.47;4905176;29;20032;-96
2024/02/15 15:56:19;;;;;;;12.88;4.10;;;;;;;-143.29;100.00;62188.47;5772232;23;20044;-96
2024/02/15 15:58:47;;;;;;;17.75;4.32;;;;;;;-143.29;100.00;62188.47;4927871;29;20127;-94
2024/02/15 16:01:12;;;;;;;15.73;3.72;;;;;;;-143.29;100.00;62188.47;4919697;29;20028;-95